This is the latest recevied weather packets stored in our database for station/object JF7ELG-13. If no packets are shown the sender has not sent any weather packets the latest 10 day(s).
| Time | Temp. | Humidity | Pressure | Rain* | Wind** | Luminosity | Snow |
|---|---|---|---|---|---|---|---|
| 1778041124 | 21.67° C | 66% | 1014.4 hPa | 0 mm | - | - | - |
| 1778040220 | 21.67° C | 66% | 1014.5 hPa | 0 mm | - | - | - |
| 1778039333 | 21.67° C | 67% | 1014.5 hPa | 0 mm | - | - | - |
| 1778038434 | 22.22° C | 66% | 1014.8 hPa | 0 mm | - | - | - |
| 1778037503 | 21.67° C | 65% | 1015.1 hPa | 0 mm | - | - | - |
| 1778036605 | 21.67° C | 65% | 1015.2 hPa | 0 mm | - | - | - |
| 1778035723 | 22.22° C | 61% | 1015.5 hPa | 0 mm | - | - | - |
| 1778034825 | 23.89° C | 47% | 1015.3 hPa | 0 mm | - | - | - |
| 1778033904 | 23.89° C | 48% | 1015.6 hPa | 0 mm | - | - | - |
| 1778033021 | 23.89° C | 48% | 1015.8 hPa | 0 mm | - | - | - |
| 1778032128 | 23.33° C | 48% | 1016.3 hPa | 0 mm | - | - | - |
| 1778031231 | 23.33° C | 49% | 1016.5 hPa | 0 mm | - | - | - |
| 1778030323 | 23.33° C | 51% | 1016.6 hPa | 0 mm | - | - | - |
| 1778029442 | 22.22° C | 52% | 1016.7 hPa | 0 mm | - | - | - |
| 1778028520 | 22.22° C | 51% | 1016.9 hPa | 0 mm | - | - | - |
| 1778027624 | 21.67° C | 54% | 1017.3 hPa | 0 mm | - | - | - |
| 1778026734 | 21.67° C | 54% | 1017.5 hPa | 0 mm | - | - | - |
| 1778025828 | 21.11° C | 56% | 1017.5 hPa | 0 mm | - | - | - |
| 1778024925 | 21.11° C | 57% | 1017.4 hPa | 0 mm | - | - | - |
| 1778024017 | 20.56° C | 60% | 1017.5 hPa | 0 mm | - | - | - |
| 1778023131 | 20° C | 60% | 1017.4 hPa | 0 mm | - | - | - |
| 1778022205 | 20° C | 61% | 1017.5 hPa | 0 mm | - | - | - |
| 1778021320 | 20° C | 61% | 1017.6 hPa | 0 mm | - | - | - |
| 1778020439 | 19.44° C | 62% | 1017.6 hPa | 0 mm | - | - | - |
| 1778019506 | 18.89° C | 64% | 1017.8 hPa | 0 mm | - | - | - |
* Rain latest hour (hover to see other rain measurements)
** Current wind speed in m/s (hover to see current wind gust speed)